createdAt,value
2023-04-10T00:00:45.790Z,99.90
2023-04-10T00:03:17.936Z,99.90
2023-04-10T00:05:50.022Z,99.90
2023-04-10T00:08:24.995Z,99.90
2023-04-10T00:10:57.120Z,99.90
2023-04-10T00:13:29.341Z,99.90
2023-04-10T00:16:01.220Z,99.90
2023-04-10T00:18:32.958Z,99.90
2023-04-10T00:21:04.948Z,99.90
2023-04-10T00:23:37.839Z,99.90
2023-04-10T00:26:09.683Z,99.90
2023-04-10T00:28:41.372Z,99.90
2023-04-10T00:31:13.086Z,99.90
2023-04-10T00:33:44.788Z,99.90
2023-04-10T00:36:18.045Z,99.90
2023-04-10T00:38:49.969Z,99.90
2023-04-10T00:41:21.764Z,99.90
2023-04-10T00:43:57.484Z,99.90
2023-04-10T00:46:30.299Z,99.90
2023-04-10T00:49:02.401Z,99.90
2023-04-10T00:51:34.204Z,99.90
2023-04-10T00:54:06.598Z,99.90
2023-04-10T00:56:38.402Z,99.90
2023-04-10T00:59:10.380Z,99.90
2023-04-10T01:01:42.385Z,99.90
2023-04-10T01:04:16.266Z,99.90
2023-04-10T01:07:03.423Z,99.90
2023-04-10T01:09:39.577Z,99.90
2023-04-10T01:12:18.772Z,99.90
2023-04-10T01:15:11.466Z,99.90
2023-04-10T01:18:04.613Z,99.90
2023-04-10T01:20:41.850Z,99.90
2023-04-10T01:23:32.614Z,99.90
2023-04-10T01:26:07.294Z,99.90
2023-04-10T01:29:01.650Z,99.90
2023-04-10T01:31:44.877Z,99.90
2023-04-10T01:34:27.475Z,99.90
2023-04-10T01:37:16.565Z,99.90
2023-04-10T01:39:54.848Z,99.90
2023-04-10T01:42:30.772Z,99.90
2023-04-10T01:45:04.858Z,99.90
2023-04-10T01:47:36.814Z,99.90
2023-04-10T01:50:09.805Z,99.90
2023-04-10T01:52:42.789Z,99.90
2023-04-10T01:55:15.247Z,99.90
2023-04-10T01:57:50.676Z,99.90
2023-04-10T02:00:22.877Z,99.90
2023-04-10T02:02:54.753Z,99.90
2023-04-10T02:05:34.217Z,99.90
2023-04-10T02:08:12.350Z,99.90
2023-04-10T02:10:52.238Z,99.90
2023-04-10T02:13:27.700Z,99.90
2023-04-10T02:16:04.109Z,99.90
2023-04-10T02:18:38.173Z,99.90
2023-04-10T02:21:09.916Z,99.90
2023-04-10T02:23:41.920Z,99.90
2023-04-10T02:26:13.647Z,99.90
2023-04-10T02:28:45.348Z,99.90
2023-04-10T02:31:17.421Z,99.90
2023-04-10T02:33:49.460Z,99.90
2023-04-10T02:36:21.597Z,99.90
2023-04-10T02:38:53.319Z,99.90
2023-04-10T02:41:25.005Z,99.90
2023-04-10T02:43:56.839Z,99.90
2023-04-10T02:46:28.649Z,99.90
2023-04-10T02:49:01.165Z,99.90
2023-04-10T02:51:36.371Z,99.90
2023-04-10T02:54:08.066Z,99.90
2023-04-10T02:56:39.784Z,99.90
2023-04-10T02:59:12.386Z,99.90
2023-04-10T03:01:45.799Z,99.90
2023-04-10T03:04:17.877Z,99.90
2023-04-10T03:06:49.709Z,99.90
2023-04-10T03:09:21.626Z,99.90
2023-04-10T03:11:53.325Z,99.90
2023-04-10T03:14:26.326Z,99.90
2023-04-10T03:16:58.140Z,99.90
2023-04-10T03:19:29.977Z,99.90
2023-04-10T03:22:02.252Z,99.90
2023-04-10T03:24:33.981Z,99.90
2023-04-10T03:27:06.249Z,99.90
2023-04-10T03:29:38.042Z,99.90
2023-04-10T03:32:09.782Z,99.90
2023-04-10T03:34:41.573Z,99.90
2023-04-10T03:37:13.328Z,99.90
2023-04-10T03:39:45.289Z,99.90
2023-04-10T03:42:17.018Z,99.90
2023-04-10T03:44:48.742Z,99.90
2023-04-10T03:47:20.450Z,99.90
2023-04-10T03:49:52.154Z,99.90
2023-04-10T03:52:23.809Z,99.90
2023-04-10T03:54:55.689Z,99.90
2023-04-10T03:57:27.415Z,99.90
2023-04-10T03:59:59.238Z,99.90
2023-04-10T04:02:31.161Z,99.90
2023-04-10T04:05:03.111Z,99.90
2023-04-10T04:07:35.153Z,99.90
2023-04-10T04:10:07.420Z,99.90
2023-04-10T04:12:39.155Z,99.90
2023-04-10T04:15:11.021Z,99.90
2023-04-10T04:17:43.367Z,99.90
2023-04-10T04:20:15.708Z,99.90
2023-04-10T04:22:47.536Z,99.90
2023-04-10T04:25:20.066Z,99.90
2023-04-10T04:27:51.743Z,99.90
2023-04-10T04:30:23.528Z,99.90
2023-04-10T04:32:55.274Z,99.90
2023-04-10T04:35:26.948Z,99.90
2023-04-10T04:37:58.676Z,99.90
2023-04-10T04:40:31.085Z,99.90
2023-04-10T04:43:02.765Z,99.90
2023-04-10T04:45:34.570Z,99.90
2023-04-10T04:48:06.480Z,99.90
2023-04-10T04:50:40.674Z,99.90
2023-04-10T04:53:13.044Z,99.90
2023-04-10T04:55:44.741Z,99.90
2023-04-10T04:58:16.441Z,99.90
2023-04-10T05:00:48.180Z,99.90
2023-04-10T05:03:20.305Z,99.90
2023-04-10T05:05:52.155Z,99.90
2023-04-10T05:08:24.109Z,99.90
2023-04-10T05:10:56.032Z,99.90
2023-04-10T05:13:27.762Z,99.90
2023-04-10T05:15:59.497Z,99.90
2023-04-10T05:18:31.403Z,99.90
2023-04-10T05:21:03.211Z,99.90
2023-04-10T05:23:34.939Z,99.90
2023-04-10T05:26:06.891Z,99.90
2023-04-10T05:28:38.698Z,99.90
2023-04-10T05:31:10.427Z,99.90
2023-04-10T05:33:42.181Z,99.90
2023-04-10T05:36:14.285Z,99.90
2023-04-10T05:38:46.087Z,99.90
2023-04-10T05:41:17.851Z,99.90
2023-04-10T05:43:49.939Z,99.90
2023-04-10T05:46:21.612Z,99.90
2023-04-10T05:48:53.917Z,99.90
2023-04-10T05:51:26.321Z,99.90
2023-04-10T05:53:58.054Z,99.90
2023-04-10T05:56:29.741Z,99.90
2023-04-10T05:59:01.442Z,99.90
2023-04-10T06:01:33.221Z,99.90
2023-04-10T06:04:05.160Z,99.90
2023-04-10T06:06:37.089Z,99.90
2023-04-10T06:09:08.861Z,99.90
2023-04-10T06:11:41.036Z,99.90
2023-04-10T06:14:12.769Z,99.90
2023-04-10T06:16:44.496Z,99.90
2023-04-10T06:19:16.239Z,99.90
2023-04-10T06:21:48.000Z,99.90
2023-04-10T06:24:19.666Z,99.90
2023-04-10T06:26:51.395Z,99.90
2023-04-10T06:29:23.861Z,99.90
2023-04-10T06:31:55.750Z,99.90
2023-04-10T06:34:27.657Z,99.90
2023-04-10T06:36:59.551Z,99.90
2023-04-10T06:39:31.220Z,99.90
2023-04-10T06:42:03.618Z,99.90
2023-04-10T06:44:35.327Z,99.90
2023-04-10T06:47:09.179Z,99.90
2023-04-10T06:49:40.900Z,99.90
2023-04-10T06:52:12.703Z,99.90
2023-04-10T06:54:44.369Z,99.90
2023-04-10T06:57:16.169Z,99.90
2023-04-10T06:59:47.889Z,99.90
2023-04-10T07:02:19.741Z,99.90
2023-04-10T07:04:51.779Z,99.90
2023-04-10T07:07:23.857Z,99.90
2023-04-10T07:09:55.641Z,99.90
2023-04-10T07:12:27.499Z,99.90
2023-04-10T07:14:59.418Z,99.90
2023-04-10T07:17:31.240Z,99.90
2023-04-10T07:20:03.416Z,99.90
2023-04-10T07:22:35.182Z,99.90
2023-04-10T07:25:07.785Z,99.90
2023-04-10T07:27:40.609Z,99.90
2023-04-10T07:30:13.739Z,99.90
2023-04-10T07:32:46.049Z,99.90
2023-04-10T07:35:18.010Z,99.90
2023-04-10T07:37:51.977Z,99.90
2023-04-10T07:40:23.718Z,99.90
2023-04-10T07:42:55.429Z,99.90
2023-04-10T07:45:28.544Z,99.90
2023-04-10T07:48:00.425Z,99.90
2023-04-10T07:50:32.216Z,99.90
2023-04-10T07:53:07.777Z,99.90
2023-04-10T07:55:44.917Z,99.90
2023-04-10T07:58:16.653Z,99.90
2023-04-10T08:00:48.345Z,99.90
2023-04-10T08:03:20.523Z,99.90
2023-04-10T08:05:52.310Z,99.90
2023-04-10T08:08:24.097Z,99.90
2023-04-10T08:10:55.968Z,99.90
2023-04-10T08:13:28.112Z,99.90
2023-04-10T08:16:00.225Z,99.90
2023-04-10T08:18:31.932Z,99.90
2023-04-10T08:21:03.772Z,99.90
2023-04-10T08:23:35.524Z,99.90
2023-04-10T08:26:07.410Z,99.90
2023-04-10T08:28:39.341Z,99.90
2023-04-10T08:31:11.076Z,99.90
2023-04-10T08:33:42.929Z,99.90
2023-04-10T08:36:20.209Z,99.90
2023-04-10T08:38:52.361Z,99.90
2023-04-10T08:41:24.088Z,99.90
2023-04-10T08:43:57.410Z,99.90
2023-04-10T08:46:31.799Z,99.90
2023-04-10T08:49:05.536Z,99.90
2023-04-10T08:51:43.417Z,99.90
2023-04-10T08:54:22.593Z,99.90
2023-04-10T08:56:55.988Z,99.90
2023-04-10T08:59:31.534Z,99.90
2023-04-10T09:02:03.507Z,99.90
2023-04-10T09:04:36.539Z,99.90
2023-04-10T09:07:08.353Z,99.90
2023-04-10T09:09:40.797Z,99.90
2023-04-10T09:12:14.073Z,99.90
2023-04-10T09:14:45.915Z,99.90
2023-04-10T09:17:23.154Z,99.90
2023-04-10T09:19:55.991Z,99.90
2023-04-10T09:22:35.719Z,99.90
2023-04-10T09:25:33.914Z,99.90
2023-04-10T09:28:07.924Z,97.70
2023-04-10T09:30:43.230Z,95.20
2023-04-10T09:33:24.940Z,90.80
2023-04-10T09:36:00.830Z,89.50
2023-04-10T09:38:32.744Z,83.40
2023-04-10T09:41:08.590Z,81.40
2023-04-10T09:43:40.386Z,79.90
2023-04-10T09:46:13.015Z,76.40
2023-04-10T09:48:56.966Z,73.70
2023-04-10T09:51:30.796Z,69.90
2023-04-10T09:54:03.795Z,72.90
2023-04-10T09:56:39.020Z,67.00
2023-04-10T09:59:12.161Z,69.10
2023-04-10T10:01:44.983Z,68.00
2023-04-10T10:04:17.399Z,68.40
2023-04-10T10:06:49.587Z,67.10
2023-04-10T10:09:21.668Z,63.40
2023-04-10T10:11:54.485Z,60.80
2023-04-10T10:14:29.059Z,62.50
2023-04-10T10:17:05.592Z,59.50
2023-04-10T10:20:01.695Z,59.30
2023-04-10T10:22:33.751Z,58.50
2023-04-10T10:25:07.149Z,59.80
2023-04-10T10:27:41.744Z,56.20
2023-04-10T10:30:28.160Z,58.50
2023-04-10T10:33:05.625Z,58.50
2023-04-10T10:35:37.827Z,61.30
2023-04-10T10:38:10.768Z,58.90
2023-04-10T10:41:17.790Z,57.60
2023-04-10T10:43:55.797Z,55.80
2023-04-10T10:46:33.747Z,52.50
2023-04-10T10:49:05.734Z,52.50
2023-04-10T10:51:45.447Z,50.00
2023-04-10T10:54:31.017Z,49.80
2023-04-10T10:57:05.398Z,52.50
2023-04-10T10:59:46.293Z,53.10
2023-04-10T11:02:19.893Z,54.10
2023-04-10T11:04:51.700Z,55.10
2023-04-10T11:07:58.435Z,55.50
2023-04-10T11:11:08.136Z,52.80
2023-04-10T11:13:59.863Z,52.80
2023-04-10T11:16:32.990Z,53.20
2023-04-10T11:19:13.322Z,50.70
2023-04-10T11:22:04.305Z,49.90
2023-04-10T11:25:00.114Z,50.50
2023-04-10T11:27:40.462Z,51.00
2023-04-10T11:30:32.651Z,52.00
2023-04-10T11:33:05.467Z,54.50
2023-04-10T11:35:37.551Z,56.80
2023-04-10T11:38:17.546Z,57.80
2023-04-10T11:41:04.725Z,59.20
2023-04-10T11:43:36.549Z,59.50
2023-04-10T11:46:08.592Z,58.20
2023-04-10T11:48:40.479Z,59.40
2023-04-10T11:51:13.965Z,56.90
2023-04-10T11:53:46.225Z,59.30
2023-04-10T11:56:21.246Z,59.20
2023-04-10T11:58:54.637Z,58.00
2023-04-10T12:01:27.154Z,59.40
2023-04-10T12:03:59.973Z,57.90
2023-04-10T12:06:31.988Z,61.30
2023-04-10T12:09:17.334Z,59.20
2023-04-10T12:11:59.516Z,57.70
2023-04-10T12:14:35.232Z,58.10
2023-04-10T12:17:12.873Z,56.70
2023-04-10T12:19:45.267Z,56.70
2023-04-10T12:22:17.084Z,55.50
2023-04-10T12:24:54.433Z,55.60
2023-04-10T12:27:27.726Z,52.80
2023-04-10T12:29:59.484Z,53.80
2023-04-10T12:32:31.740Z,56.40
2023-04-10T12:35:03.650Z,57.40
2023-04-10T12:37:52.457Z,56.90
2023-04-10T12:40:24.364Z,57.50
2023-04-10T12:42:56.298Z,58.00
2023-04-10T12:45:46.295Z,55.80
2023-04-10T12:48:24.247Z,55.50
2023-04-10T12:50:56.365Z,56.70
2023-04-10T12:53:28.395Z,56.70
2023-04-10T12:56:04.922Z,57.00
2023-04-10T12:58:37.005Z,57.00
2023-04-10T13:01:09.793Z,56.20
2023-04-10T13:03:41.792Z,58.50
2023-04-10T13:06:13.590Z,57.90
2023-04-10T13:08:45.387Z,57.50
2023-04-10T13:11:17.143Z,57.50
2023-04-10T13:13:49.796Z,57.00
2023-04-10T13:16:21.550Z,58.00
2023-04-10T13:18:53.482Z,56.60
2023-04-10T13:21:26.975Z,55.80
2023-04-10T13:23:58.743Z,57.70
2023-04-10T13:26:30.469Z,57.30
2023-04-10T13:29:02.266Z,57.30
2023-04-10T13:31:34.131Z,56.30
2023-04-10T13:34:05.824Z,56.00
2023-04-10T13:36:37.611Z,56.60
2023-04-10T13:39:09.339Z,55.80
2023-04-10T13:41:41.126Z,55.60
2023-04-10T13:44:12.825Z,58.20
2023-04-10T13:46:44.701Z,55.50
2023-04-10T13:49:17.548Z,57.30
2023-04-10T13:51:49.599Z,58.20
2023-04-10T13:54:21.330Z,57.90
2023-04-10T13:56:54.687Z,57.50
2023-04-10T13:59:26.427Z,57.70
2023-04-10T14:01:58.180Z,59.40
2023-04-10T14:04:30.776Z,59.20
2023-04-10T14:07:02.491Z,56.90
2023-04-10T14:09:34.204Z,58.20
2023-04-10T14:12:06.051Z,59.30
2023-04-10T14:14:37.741Z,58.40
2023-04-10T14:17:09.473Z,57.50
2023-04-10T14:19:42.303Z,58.90
2023-04-10T14:22:13.961Z,58.20
2023-04-10T14:24:46.204Z,58.50
2023-04-10T14:27:17.981Z,57.10
2023-04-10T14:29:54.770Z,56.40
2023-04-10T14:32:26.948Z,56.20
2023-04-10T14:34:58.773Z,56.60
2023-04-10T14:37:30.558Z,55.80
2023-04-10T14:40:04.955Z,56.80
2023-04-10T14:42:36.749Z,57.20
2023-04-10T14:45:09.135Z,55.50
2023-04-10T14:47:41.833Z,55.20
2023-04-10T14:50:13.985Z,55.30
2023-04-10T14:52:45.878Z,56.80
2023-04-10T14:55:17.692Z,57.80
2023-04-10T14:57:49.441Z,56.80
2023-04-10T15:00:21.338Z,56.60
2023-04-10T15:02:53.328Z,58.00
2023-04-10T15:05:26.643Z,57.20
2023-04-10T15:07:58.326Z,57.00
2023-04-10T15:10:33.197Z,57.00
2023-04-10T15:13:06.003Z,58.20
2023-04-10T15:15:37.714Z,57.90
2023-04-10T15:18:09.479Z,59.40
2023-04-10T15:20:41.450Z,60.20
2023-04-10T15:23:13.188Z,59.30
2023-04-10T15:25:44.969Z,59.10
2023-04-10T15:28:16.649Z,60.10
2023-04-10T15:30:50.058Z,59.50
2023-04-10T15:33:21.947Z,59.80
2023-04-10T15:35:53.735Z,58.80
2023-04-10T15:38:28.894Z,59.20
2023-04-10T15:41:00.691Z,59.80
2023-04-10T15:43:32.361Z,62.00
2023-04-10T15:46:04.866Z,60.20
2023-04-10T15:48:36.815Z,59.90
2023-04-10T15:51:08.632Z,59.00
2023-04-10T15:53:40.499Z,60.10
2023-04-10T15:56:12.230Z,59.90
2023-04-10T15:58:44.169Z,61.70
2023-04-10T16:01:16.125Z,62.30
2023-04-10T16:03:49.399Z,61.40
2023-04-10T16:06:21.386Z,60.50
2023-04-10T16:08:53.143Z,61.40
2023-04-10T16:11:24.833Z,60.70
2023-04-10T16:13:56.713Z,61.90
2023-04-10T16:16:29.151Z,60.70
2023-04-10T16:19:01.793Z,61.40
2023-04-10T16:21:33.680Z,61.40
2023-04-10T16:24:05.753Z,61.40
2023-04-10T16:26:37.505Z,61.70
2023-04-10T16:29:09.211Z,62.00
2023-04-10T16:31:41.005Z,61.30
2023-04-10T16:34:12.741Z,62.50
2023-04-10T16:36:44.464Z,61.80
2023-04-10T16:39:16.214Z,62.60
2023-04-10T16:41:47.910Z,61.40
2023-04-10T16:44:19.669Z,62.10
2023-04-10T16:46:51.500Z,62.20
2023-04-10T16:49:24.443Z,61.30
2023-04-10T16:51:56.160Z,62.80
2023-04-10T16:54:27.842Z,61.40
2023-04-10T16:56:59.608Z,63.00
2023-04-10T16:59:31.923Z,64.70
2023-04-10T17:02:03.710Z,65.20
2023-04-10T17:04:35.676Z,65.20
2023-04-10T17:07:07.404Z,66.20
2023-04-10T17:09:39.196Z,66.80
2023-04-10T17:12:12.014Z,67.20
2023-04-10T17:14:44.000Z,67.10
2023-04-10T17:17:15.885Z,67.80
2023-04-10T17:19:48.309Z,67.80
2023-04-10T17:22:20.656Z,67.40
2023-04-10T17:24:52.436Z,68.30
2023-04-10T17:27:24.176Z,68.70
2023-04-10T17:29:55.920Z,69.10
2023-04-10T17:32:27.695Z,69.20
2023-04-10T17:34:59.545Z,73.50
2023-04-10T17:37:31.277Z,75.00
2023-04-10T17:40:03.155Z,78.60
2023-04-10T17:42:34.899Z,81.70
2023-04-10T17:45:07.202Z,84.30
2023-04-10T17:47:40.051Z,85.80
2023-04-10T17:50:11.876Z,88.90
2023-04-10T17:52:44.466Z,90.50
2023-04-10T17:55:21.205Z,90.20
2023-04-10T17:57:53.693Z,91.30
2023-04-10T18:00:25.560Z,92.50
2023-04-10T18:03:00.992Z,91.70
2023-04-10T18:05:36.594Z,92.50
2023-04-10T18:08:08.723Z,92.70
2023-04-10T18:10:40.674Z,92.70
2023-04-10T18:13:12.422Z,92.30
2023-04-10T18:15:44.245Z,92.70
2023-04-10T18:18:16.080Z,93.60
2023-04-10T18:20:47.936Z,93.00
2023-04-10T18:23:19.764Z,93.80
2023-04-10T18:25:55.535Z,94.20
2023-04-10T18:28:27.630Z,94.30
2023-04-10T18:30:59.569Z,94.80
2023-04-10T18:33:31.469Z,95.30
2023-04-10T18:36:03.592Z,94.30
2023-04-10T18:38:35.389Z,93.60
2023-04-10T18:41:07.157Z,93.70
2023-04-10T18:43:39.303Z,94.10
2023-04-10T18:46:11.509Z,93.50
2023-04-10T18:48:43.995Z,93.90
2023-04-10T18:51:15.861Z,94.00
2023-04-10T18:53:47.827Z,94.10
2023-04-10T18:56:19.596Z,92.80
2023-04-10T18:58:51.377Z,94.10
2023-04-10T19:01:23.158Z,94.20
2023-04-10T19:03:55.254Z,94.00
2023-04-10T19:06:28.473Z,95.80
2023-04-10T19:09:00.437Z,95.70
2023-04-10T19:11:32.676Z,96.30
2023-04-10T19:14:04.548Z,96.30
2023-04-10T19:16:36.793Z,97.40
2023-04-10T19:19:08.604Z,97.80
2023-04-10T19:21:40.388Z,98.40
2023-04-10T19:24:12.286Z,98.30
2023-04-10T19:26:44.072Z,99.10
2023-04-10T19:29:15.729Z,98.80
2023-04-10T19:31:47.709Z,99.90
2023-04-10T19:34:19.556Z,99.70
2023-04-10T19:36:51.365Z,99.60
2023-04-10T19:39:23.126Z,99.90
2023-04-10T19:41:56.374Z,99.90
2023-04-10T19:44:28.166Z,99.90
2023-04-10T19:47:00.083Z,99.90
2023-04-10T19:49:34.354Z,99.90
2023-04-10T19:52:06.178Z,99.90
2023-04-10T19:54:37.944Z,99.90
2023-04-10T19:57:11.026Z,99.90
2023-04-10T19:59:42.905Z,99.90
2023-04-10T20:02:15.861Z,99.90
2023-04-10T20:04:48.781Z,99.70
2023-04-10T20:07:21.103Z,98.90
2023-04-10T20:09:52.945Z,98.90
2023-04-10T20:12:24.617Z,99.00
2023-04-10T20:14:56.599Z,98.70
2023-04-10T20:17:28.902Z,98.80
2023-04-10T20:20:00.742Z,98.50
2023-04-10T20:22:32.534Z,98.80
2023-04-10T20:25:04.596Z,98.70
2023-04-10T20:27:36.338Z,98.70
2023-04-10T20:30:08.565Z,99.10
2023-04-10T20:32:40.338Z,99.10
2023-04-10T20:35:13.373Z,99.10
2023-04-10T20:37:45.256Z,99.30
2023-04-10T20:40:17.115Z,99.10
2023-04-10T20:42:49.067Z,99.40
2023-04-10T20:45:20.998Z,99.60
2023-04-10T20:47:52.903Z,99.70
2023-04-10T20:50:24.764Z,99.50
2023-04-10T20:52:56.507Z,99.50
2023-04-10T20:55:28.292Z,99.50
2023-04-10T20:57:59.982Z,99.50
2023-04-10T21:00:32.177Z,99.40
2023-04-10T21:03:04.642Z,99.20
2023-04-10T21:05:41.434Z,99.90
2023-04-10T21:08:14.747Z,99.90
2023-04-10T21:10:46.539Z,99.90
2023-04-10T21:13:18.276Z,99.90
2023-04-10T21:15:50.196Z,99.90
2023-04-10T21:18:22.007Z,99.90
2023-04-10T21:20:53.757Z,99.90
2023-04-10T21:23:25.597Z,99.90
2023-04-10T21:25:57.480Z,99.90
2023-04-10T21:28:29.397Z,99.90
2023-04-10T21:31:01.147Z,99.90
2023-04-10T21:33:33.126Z,99.90
2023-04-10T21:36:06.417Z,99.90
2023-04-10T21:38:38.262Z,99.90
2023-04-10T21:41:09.954Z,99.90
2023-04-10T21:43:43.042Z,99.90
2023-04-10T21:46:14.891Z,99.90
2023-04-10T21:48:47.626Z,99.90
2023-04-10T21:51:19.385Z,99.90
2023-04-10T21:53:51.345Z,99.90
2023-04-10T21:56:23.088Z,99.90
2023-04-10T21:58:56.392Z,99.90
2023-04-10T22:01:28.324Z,99.90
2023-04-10T22:04:00.328Z,99.90
2023-04-10T22:06:32.139Z,99.90
2023-04-10T22:09:03.954Z,99.90
2023-04-10T22:11:37.121Z,99.90
2023-04-10T22:14:17.015Z,99.90
2023-04-10T22:16:49.920Z,99.90
2023-04-10T22:19:21.980Z,99.90
2023-04-10T22:21:53.777Z,99.90
2023-04-10T22:24:25.838Z,99.90
2023-04-10T22:26:57.613Z,99.90
2023-04-10T22:29:29.332Z,99.90
2023-04-10T22:32:01.570Z,99.90
2023-04-10T22:34:33.312Z,99.90
2023-04-10T22:37:05.113Z,99.90
2023-04-10T22:39:36.897Z,99.90
2023-04-10T22:42:08.730Z,99.90
2023-04-10T22:44:40.602Z,99.90
2023-04-10T22:47:12.354Z,99.90
2023-04-10T22:49:44.136Z,99.90
2023-04-10T22:52:16.329Z,99.90
2023-04-10T22:54:48.038Z,99.90
2023-04-10T22:57:19.709Z,99.90
2023-04-10T22:59:51.434Z,99.90
2023-04-10T23:02:23.249Z,99.90
2023-04-10T23:04:57.650Z,99.90
2023-04-10T23:07:29.516Z,99.90
2023-04-10T23:10:01.241Z,99.90
2023-04-10T23:12:33.025Z,99.90
2023-04-10T23:15:06.102Z,99.90
2023-04-10T23:17:38.127Z,99.90
2023-04-10T23:20:10.557Z,99.90
2023-04-10T23:22:42.267Z,99.90
2023-04-10T23:25:14.921Z,99.90
2023-04-10T23:27:46.752Z,99.90
2023-04-10T23:30:18.448Z,99.90
2023-04-10T23:32:50.276Z,99.90
2023-04-10T23:35:22.611Z,99.90
2023-04-10T23:37:54.530Z,99.90
2023-04-10T23:40:26.369Z,99.90
2023-04-10T23:42:58.046Z,99.90
2023-04-10T23:45:29.785Z,99.90
2023-04-10T23:48:01.580Z,99.90
2023-04-10T23:50:33.445Z,99.90
2023-04-10T23:53:08.405Z,99.90
2023-04-10T23:55:40.289Z,99.90
2023-04-10T23:58:12.055Z,99.90
